Time;durP1;ratioP1;P1;durP2;ratioP2;P2;SDS_P1;SDS_P2;PMS_P1;PMS_P2;Temp;Humidity;BMP_temperature;BMP_pressure;BME280_temperature;BME280_humidity;BME280_pressure;Samples;Min_cycle;Max_cycle;Signal;HPM_P1;HPM_P2
2023/09/23 00:01:04;;;;;;;0.67;0.67;;;21.90;73.80;;;;;;5018212;28;43403;-75
2023/09/23 00:03:33;;;;;;;0.40;0.40;;;21.90;73.80;;;;;;5043885;28;43466;-75
2023/09/23 00:06:03;;;;;;;0.53;0.53;;;21.90;73.80;;;;;;5031214;28;44415;-75
2023/09/23 00:08:32;;;;;;;0.53;0.53;;;21.80;74.00;;;;;;5031954;28;43846;-76
2023/09/23 00:11:01;;;;;;;0.60;0.60;;;21.80;74.80;;;;;;5017360;28;43482;-75
2023/09/23 00:13:30;;;;;;;0.60;0.60;;;21.70;74.20;;;;;;5055818;28;43467;-75
2023/09/23 00:15:58;;;;;;;0.60;0.60;;;21.80;74.00;;;;;;5030047;28;43854;-76
2023/09/23 00:18:27;;;;;;;0.60;0.60;;;21.90;73.60;;;;;;5020446;28;44738;-75
2023/09/23 00:20:56;;;;;;;0.43;0.43;;;22.10;73.20;;;;;;5037279;28;43440;-75
2023/09/23 00:23:25;;;;;;;1.23;0.70;;;22.10;72.90;;;;;;5045756;28;43399;-75
2023/09/23 00:25:53;;;;;;;0.80;0.80;;;22.10;72.80;;;;;;5026693;28;43844;-76
2023/09/23 00:28:30;;;;;;;0.70;0.70;;;22.10;72.90;;;;;;5025903;28;43594;-77
2023/09/23 00:31:10;;;;;;;0.60;0.60;;;22.00;73.20;;;;;;5055837;28;43539;-76
2023/09/23 00:33:39;;;;;;;0.60;0.60;;;21.90;73.40;;;;;;5012683;28;43531;-77
2023/09/23 00:36:08;;;;;;;0.47;0.47;;;21.90;73.40;;;;;;5021751;28;45776;-76
2023/09/23 00:38:38;;;;;;;0.50;0.50;;;21.90;74.50;;;;;;5028490;28;43489;-75
2023/09/23 00:41:07;;;;;;;0.60;0.60;;;21.80;74.00;;;;;;5053589;28;43439;-73
2023/09/23 00:43:37;;;;;;;0.70;0.70;;;21.70;74.10;;;;;;5031298;28;43401;-73
2023/09/23 00:46:05;;;;;;;0.93;0.70;;;21.70;74.20;;;;;;5032038;28;45604;-73
2023/09/23 00:48:36;;;;;;;0.50;0.50;;;21.70;74.30;;;;;;5026847;28;44689;-72
2023/09/23 00:51:06;;;;;;;0.70;0.70;;;21.70;74.40;;;;;;5055267;28;44164;-74
2023/09/23 00:53:35;;;;;;;0.70;0.70;;;21.70;74.60;;;;;;5022095;28;43378;-72
2023/09/23 00:56:07;;;;;;;0.70;0.57;;;21.60;74.80;;;;;;5034574;28;43854;-71
2023/09/23 00:58:36;;;;;;;0.70;0.70;;;21.70;74.80;;;;;;5041279;28;43398;-72
2023/09/23 01:01:08;;;;;;;0.60;0.60;;;21.80;74.50;;;;;;5028876;28;43484;-75
2023/09/23 01:03:38;;;;;;;0.70;0.70;;;21.90;74.20;;;;;;5075982;22;43537;-77
2023/09/23 01:06:08;;;;;;;0.53;0.53;;;22.00;73.80;;;;;;5062341;28;45750;-76
2023/09/23 01:08:38;;;;;;;0.60;0.60;;;22.10;73.70;;;;;;5061967;28;44393;-76
2023/09/23 01:11:09;;;;;;;0.40;0.40;;;22.00;73.60;;;;;;5053255;28;43429;-77
2023/09/23 01:13:37;;;;;;;0.50;0.50;;;21.90;73.80;;;;;;5065914;28;43551;-77
2023/09/23 01:16:12;;;;;;;0.47;0.47;;;21.90;74.40;;;;;;5063180;28;43834;-77
2023/09/23 01:18:40;;;;;;;0.60;0.60;;;21.80;74.50;;;;;;5043907;28;43661;-76
2023/09/23 01:21:08;;;;;;;0.40;0.40;;;21.80;74.60;;;;;;5042035;28;43526;-76
2023/09/23 01:23:38;;;;;;;0.63;0.63;;;21.80;74.70;;;;;;5044583;28;43502;-77
2023/09/23 01:26:06;;;;;;;0.43;0.43;;;21.70;74.80;;;;;;5056781;28;44027;-77
2023/09/23 01:28:34;;;;;;;0.23;0.23;;;21.60;75.20;;;;;;5061535;28;43965;-77
2023/09/23 01:31:03;;;;;;;0.40;0.40;;;21.60;75.20;;;;;;5065872;28;43531;-77
2023/09/23 01:33:31;;;;;;;0.40;0.40;;;21.60;75.10;;;;;;5053536;28;43396;-76
2023/09/23 01:36:03;;;;;;;0.60;0.60;;;21.60;75.20;;;;;;5066153;28;45606;-77
2023/09/23 01:38:31;;;;;;;0.60;0.60;;;21.60;75.60;;;;;;5057513;28;44654;-77
2023/09/23 01:41:03;;;;;;;0.40;0.37;;;21.60;75.70;;;;;;5070398;28;43438;-76
2023/09/23 01:43:32;;;;;;;0.50;0.50;;;21.70;75.50;;;;;;5063746;28;43410;-77
2023/09/23 01:46:03;;;;;;;0.53;0.53;;;21.80;75.10;;;;;;5075555;28;45564;-77
2023/09/23 01:48:32;;;;;;;0.50;0.50;;;21.90;74.60;;;;;;5053282;28;43503;-77
2023/09/23 01:51:00;;;;;;;0.70;0.70;;;22.00;74.30;;;;;;5045567;28;43479;-77
2023/09/23 01:53:31;;;;;;;0.40;0.40;;;22.00;74.20;;;;;;5050317;28;43510;-76
2023/09/23 01:56:01;;;;;;;0.50;0.50;;;22.00;74.30;;;;;;5063181;28;45942;-77
2023/09/23 01:58:30;;;;;;;0.50;0.50;;;21.90;74.50;;;;;;5070026;28;43407;-76
2023/09/23 02:00:58;;;;;;;0.60;0.60;;;21.80;75.00;;;;;;5070780;27;43869;-76
2023/09/23 02:03:27;;;;;;;0.63;0.63;;;21.80;75.00;;;;;;5061675;28;43476;-77
2023/09/23 02:05:57;;;;;;;0.50;0.50;;;21.70;75.00;;;;;;5066253;28;43689;-76
2023/09/23 02:08:27;;;;;;;0.60;0.60;;;21.70;75.10;;;;;;5060086;28;44728;-77
2023/09/23 02:11:10;;;;;;;0.60;0.60;;;21.70;75.40;;;;;;5045726;28;43795;-77
2023/09/23 02:13:41;;;;;;;0.50;0.50;;;21.60;75.60;;;;;;5066328;28;43663;-76
2023/09/23 02:16:09;;;;;;;0.60;0.60;;;21.60;75.50;;;;;;5065621;28;45405;-77
2023/09/23 02:18:38;;;;;;;0.63;0.63;;;21.60;75.60;;;;;;5063262;28;44030;-76
2023/09/23 02:21:07;;;;;;;0.50;0.50;;;21.50;76.20;;;;;;5050191;28;43406;-75
2023/09/23 02:23:35;;;;;;;0.60;0.60;;;21.50;75.90;;;;;;5068384;28;43898;-74
2023/09/23 02:26:05;;;;;;;0.70;0.70;;;21.50;75.90;;;;;;5074112;28;45609;-75
2023/09/23 02:28:34;;;;;;;0.60;0.60;;;21.60;75.70;;;;;;5042861;28;44743;-75
2023/09/23 02:31:02;;;;;;;0.60;0.60;;;21.80;75.40;;;;;;5062365;28;43514;-76
2023/09/23 02:33:30;;;;;;;0.70;0.70;;;21.90;75.00;;;;;;5064812;28;43522;-77
2023/09/23 02:36:00;;;;;;;0.70;0.70;;;21.90;74.80;;;;;;5066444;28;46079;-78
2023/09/23 02:38:29;;;;;;;0.60;0.60;;;21.80;74.70;;;;;;5063584;28;43497;-77
2023/09/23 02:41:01;;;;;;;0.50;0.50;;;21.80;75.00;;;;;;5069084;28;43413;-77
2023/09/23 02:43:30;;;;;;;0.57;0.57;;;21.70;75.20;;;;;;5059737;28;43575;-76
2023/09/23 02:46:01;;;;;;;0.70;0.70;;;21.70;75.50;;;;;;5042300;28;45702;-77
2023/09/23 02:48:29;;;;;;;0.77;0.77;;;21.60;75.40;;;;;;5045726;28;44820;-77
2023/09/23 02:51:00;;;;;;;0.40;0.40;;;21.60;75.50;;;;;;5064838;28;43467;-77
2023/09/23 02:53:30;;;;;;;0.60;0.60;;;21.60;75.70;;;;;;5039124;28;43621;-77
2023/09/23 02:56:05;;;;;;;0.50;0.50;;;21.50;75.90;;;;;;5034432;28;45786;-77
2023/09/23 02:58:33;;;;;;;0.50;0.50;;;21.50;75.90;;;;;;5039321;28;44781;-77
2023/09/23 03:01:05;;;;;;;0.67;0.67;;;21.60;75.70;;;;;;5063931;28;43450;-76
2023/09/23 03:03:37;;;;;;;0.50;0.50;;;21.60;75.50;;;;;;5044688;28;43441;-81
2023/09/23 03:06:07;;;;;;;0.60;0.60;;;21.60;75.40;;;;;;5039127;28;45654;-77
2023/09/23 03:08:37;;;;;;;0.50;0.50;;;21.60;75.60;;;;;;5044124;28;44037;-77
2023/09/23 03:11:11;;;;;;;0.50;0.50;;;21.60;75.70;;;;;;5065127;28;43452;-76
2023/09/23 03:13:39;;;;;;;0.60;0.60;;;21.60;75.60;;;;;;5065655;28;43491;-76
2023/09/23 03:16:14;;;;;;;0.60;0.60;;;21.60;75.60;;;;;;5079246;28;45676;-76
2023/09/23 03:18:54;;;;;;;0.70;0.70;;;21.50;75.70;;;;;;5061108;28;44438;-76
2023/09/23 03:21:23;;;;;;;0.60;0.60;;;21.50;76.00;;;;;;5045595;28;43465;-77
2023/09/23 03:23:52;;;;;;;0.67;0.67;;;21.50;75.90;;;;;;5061888;28;43661;-77
2023/09/23 03:26:21;;;;;;;0.60;0.60;;;21.50;75.90;;;;;;5062935;28;43832;-77
2023/09/23 03:28:49;;;;;;;0.60;0.60;;;21.50;76.00;;;;;;5045802;28;44358;-77
2023/09/23 03:31:19;;;;;;;0.60;0.60;;;21.50;76.40;;;;;;5065282;28;43423;-80
2023/09/23 03:33:50;;;;;;;0.60;0.60;;;21.50;76.30;;;;;;5042824;28;43451;-82
2023/09/23 03:36:20;;;;;;;0.50;0.50;;;21.60;75.90;;;;;;5062788;28;46015;-82
2023/09/23 03:38:49;;;;;;;0.60;0.60;;;21.70;75.50;;;;;;5057403;28;45278;-82
2023/09/23 03:41:17;;;;;;;0.50;0.50;;;21.90;75.00;;;;;;5054446;28;43417;-82
2023/09/23 03:43:46;;;;;;;0.50;0.50;;;21.90;74.80;;;;;;5061087;28;43694;-82
2023/09/23 03:46:14;;;;;;;0.60;0.60;;;21.90;74.70;;;;;;5058696;28;45694;-78
2023/09/23 03:48:44;;;;;;;0.50;0.50;;;21.80;74.70;;;;;;5060198;28;43559;-80
2023/09/23 03:51:14;;;;;;;0.57;0.57;;;21.80;75.20;;;;;;5065449;28;43427;-81
2023/09/23 03:53:44;;;;;;;0.60;0.60;;;21.70;75.40;;;;;;5050777;28;43609;-81
2023/09/23 03:56:12;;;;;;;0.50;0.50;;;21.70;75.40;;;;;;5062530;28;43858;-81
2023/09/23 03:58:41;;;;;;;0.50;0.50;;;21.70;75.30;;;;;;5040424;28;44943;-82
2023/09/23 04:01:10;;;;;;;0.50;0.50;;;21.60;75.40;;;;;;5061338;28;43397;-81
2023/09/23 04:03:39;;;;;;;0.37;0.37;;;21.60;75.90;;;;;;5062225;28;43463;-81
2023/09/23 04:06:09;;;;;;;0.70;0.70;;;21.60;75.90;;;;;;5044393;28;46017;-80
2023/09/23 04:08:37;;;;;;;0.60;0.60;;;21.60;75.80;;;;;;5052671;28;43467;-81
2023/09/23 04:11:05;;;;;;;0.60;0.60;;;21.60;75.90;;;;;;5056700;28;43518;-81
2023/09/23 04:13:34;;;;;;;0.57;0.57;;;21.50;75.90;;;;;;5051617;28;43997;-83
2023/09/23 04:16:05;;;;;;;0.60;0.60;;;21.50;76.20;;;;;;5055102;28;43624;-80
2023/09/23 04:18:37;;;;;;;0.60;0.60;;;21.50;76.00;;;;;;5060589;28;43650;-79
2023/09/23 04:21:05;;;;;;;0.50;0.50;;;21.70;75.90;;;;;;5065345;28;43525;-80
2023/09/23 04:23:35;;;;;;;0.50;0.50;;;21.80;75.30;;;;;;5048477;28;43575;-81
2023/09/23 04:26:03;;;;;;;0.50;0.50;;;21.90;74.80;;;;;;5066633;28;43552;-82
2023/09/23 04:28:32;;;;;;;0.50;0.50;;;22.00;74.70;;;;;;5047841;28;43970;-79
2023/09/23 04:31:00;;;;;;;0.60;0.60;;;22.00;74.80;;;;;;5060678;28;43467;-82
2023/09/23 04:33:28;;;;;;;0.60;0.60;;;21.90;74.90;;;;;;5066729;28;43591;-80
2023/09/23 04:35:58;;;;;;;0.60;0.60;;;21.80;75.30;;;;;;5065853;28;43917;-82
2023/09/23 04:38:26;;;;;;;0.57;0.57;;;21.70;75.40;;;;;;5068023;28;44936;-82
2023/09/23 04:40:56;;;;;;;0.50;0.50;;;21.70;75.40;;;;;;5073134;28;44024;-76
2023/09/23 04:43:30;;;;;;;0.50;0.50;;;21.70;75.60;;;;;;5062305;28;43448;-78
2023/09/23 04:45:58;;;;;;;0.50;0.50;;;21.60;75.60;;;;;;5071341;28;43648;-82
2023/09/23 04:48:26;;;;;;;0.57;0.57;;;21.60;76.00;;;;;;5063183;28;43511;-82
2023/09/23 04:50:55;;;;;;;0.50;0.50;;;21.60;75.90;;;;;;5073716;28;43441;-80
2023/09/23 04:53:24;;;;;;;0.70;0.70;;;21.60;75.90;;;;;;5076382;28;43933;-76
2023/09/23 04:55:52;;;;;;;0.60;0.60;;;21.50;76.60;;;;;;5078798;28;43826;-76
2023/09/23 04:58:22;;;;;;;0.70;0.70;;;21.50;76.00;;;;;;5084397;28;44268;-76
2023/09/23 05:00:51;;;;;;;0.60;0.60;;;21.50;76.40;;;;;;5084376;28;43405;-76
2023/09/23 05:03:20;;;;;;;0.47;0.47;;;21.50;76.50;;;;;;5073624;28;43456;-77
2023/09/23 05:05:48;;;;;;;0.60;0.60;;;21.60;76.10;;;;;;5067177;28;44021;-76
2023/09/23 05:08:17;;;;;;;0.57;0.57;;;21.70;75.50;;;;;;5071554;28;43455;-76
2023/09/23 05:10:45;;;;;;;0.70;0.70;;;21.80;75.20;;;;;;5084525;28;43455;-76
2023/09/23 05:13:17;;;;;;;0.53;0.53;;;21.80;75.00;;;;;;5055151;28;44559;-76
2023/09/23 05:15:46;;;;;;;0.50;0.50;;;21.80;75.80;;;;;;5072093;28;43568;-77
2023/09/23 05:18:14;;;;;;;0.50;0.50;;;21.70;75.30;;;;;;5069313;28;43434;-77
2023/09/23 05:20:43;;;;;;;0.63;0.63;;;21.70;75.70;;;;;;5072751;28;43403;-76
2023/09/23 05:23:11;;;;;;;0.60;0.60;;;21.60;75.80;;;;;;5072979;28;43443;-76
2023/09/23 05:25:41;;;;;;;0.40;0.40;;;21.60;75.80;;;;;;5080159;28;44293;-76
2023/09/23 05:28:10;;;;;;;0.60;0.60;;;21.60;75.90;;;;;;5080381;28;44919;-75
2023/09/23 05:30:38;;;;;;;0.60;0.60;;;21.50;76.00;;;;;;5047151;28;43554;-76
2023/09/23 05:33:10;;;;;;;0.60;0.60;;;21.50;76.30;;;;;;5064506;28;43447;-77
2023/09/23 05:35:39;;;;;;;0.70;0.70;;;21.50;76.30;;;;;;5062317;28;43997;-76
2023/09/23 05:38:08;;;;;;;0.60;0.60;;;21.60;76.00;;;;;;5083879;28;43639;-77
2023/09/23 05:40:37;;;;;;;0.70;0.70;;;21.60;75.80;;;;;;5059782;28;43590;-77
2023/09/23 05:43:06;;;;;;;0.50;0.50;;;21.60;75.70;;;;;;5070873;28;43539;-77
2023/09/23 05:45:37;;;;;;;0.70;0.70;;;21.60;76.00;;;;;;5065665;28;45798;-77
2023/09/23 05:48:07;;;;;;;0.60;0.60;;;21.50;76.00;;;;;;5082790;28;44364;-77
2023/09/23 05:50:36;;;;;;;0.50;0.50;;;21.60;76.00;;;;;;5060088;28;43933;-81
2023/09/23 05:53:04;;;;;;;0.60;0.60;;;21.50;75.90;;;;;;5032395;28;43583;-81
2023/09/23 05:55:33;;;;;;;0.57;0.57;;;21.50;76.10;;;;;;5060410;28;43608;-80
2023/09/23 05:58:01;;;;;;;0.60;0.60;;;21.50;76.40;;;;;;5054464;28;43531;-81
2023/09/23 06:00:30;;;;;;;0.50;0.50;;;21.50;76.30;;;;;;5054545;28;43496;-81
2023/09/23 06:02:58;;;;;;;0.60;0.60;;;21.50;76.00;;;;;;5048670;28;43998;-80
2023/09/23 06:05:29;;;;;;;0.60;0.60;;;21.60;75.70;;;;;;5058922;28;46036;-81
2023/09/23 06:07:57;;;;;;;0.50;0.50;;;21.60;75.60;;;;;;5069950;28;43501;-85
2023/09/23 06:10:25;;;;;;;0.60;0.60;;;21.60;75.80;;;;;;5046842;28;43425;-83
2023/09/23 06:13:07;;;;;;;0.60;0.60;;;21.60;75.90;;;;;;5048779;28;43607;-82
2023/09/23 06:15:35;;;;;;;0.63;0.63;;;21.60;75.90;;;;;;5026300;28;45407;-79
2023/09/23 06:18:04;;;;;;;0.57;0.57;;;21.50;75.70;;;;;;5050350;28;43683;-80
2023/09/23 06:20:33;;;;;;;0.63;0.63;;;21.50;75.90;;;;;;5062813;28;43376;-81
2023/09/23 06:23:02;;;;;;;0.60;0.60;;;21.50;76.20;;;;;;5059541;28;43575;-81
2023/09/23 06:25:30;;;;;;;0.60;0.60;;;21.50;76.20;;;;;;5058327;28;43609;-81
2023/09/23 06:27:58;;;;;;;0.60;0.60;;;21.50;76.20;;;;;;5063637;28;43403;-81
2023/09/23 06:30:28;;;;;;;0.70;0.70;;;21.50;76.30;;;;;;5065481;28;43447;-80
2023/09/23 06:32:56;;;;;;;0.60;0.60;;;21.40;76.40;;;;;;5056348;28;43399;-80
2023/09/23 06:35:24;;;;;;;0.67;0.67;;;21.40;76.50;;;;;;5048073;28;43831;-81
2023/09/23 06:37:54;;;;;;;0.53;0.53;;;21.50;76.30;;;;;;5063896;28;43381;-81
2023/09/23 06:40:24;;;;;;;0.60;0.60;;;21.60;75.90;;;;;;5064014;28;43460;-79
2023/09/23 06:42:52;;;;;;;0.80;0.80;;;21.70;75.40;;;;;;5054607;28;43443;-80
2023/09/23 06:45:20;;;;;;;0.60;0.60;;;21.80;75.10;;;;;;5065401;28;43784;-80
2023/09/23 06:47:49;;;;;;;0.60;0.60;;;21.80;75.10;;;;;;5047730;28;45079;-80
2023/09/23 06:50:17;;;;;;;0.50;0.50;;;21.70;75.20;;;;;;5056604;28;43442;-80
2023/09/23 06:52:46;;;;;;;0.60;0.60;;;21.60;75.40;;;;;;5035221;28;43658;-80
2023/09/23 06:55:16;;;;;;;0.63;0.63;;;21.60;76.60;;;;;;5039434;28;45798;-79
2023/09/23 06:57:55;;;;;;;0.60;0.60;;;21.50;75.80;;;;;;5068921;28;44943;-80
2023/09/23 07:00:24;;;;;;;0.50;0.50;;;21.50;75.90;;;;;;5045776;28;43463;-74
2023/09/23 07:02:52;;;;;;;0.50;0.50;;;21.50;76.10;;;;;;5057104;28;43531;-74
2023/09/23 07:05:20;;;;;;;0.60;0.60;;;21.40;76.20;;;;;;5053175;28;46356;-74
2023/09/23 07:07:49;;;;;;;0.63;0.63;;;21.40;76.40;;;;;;5058902;28;44365;-74
2023/09/23 07:10:18;;;;;;;0.50;0.50;;;21.50;76.20;;;;;;5054977;28;43452;-74
2023/09/23 07:12:46;;;;;;;0.70;0.70;;;21.50;75.80;;;;;;5073726;28;43933;-74
2023/09/23 07:15:15;;;;;;;0.70;0.70;;;21.60;75.70;;;;;;5055154;28;45667;-74
2023/09/23 07:17:43;;;;;;;0.73;0.73;;;21.60;75.60;;;;;;5069031;28;43313;-74
2023/09/23 07:20:12;;;;;;;0.43;0.43;;;21.50;75.60;;;;;;5071181;28;43483;-74
2023/09/23 07:22:40;;;;;;;0.60;0.60;;;21.50;75.70;;;;;;5073484;28;44078;-74
2023/09/23 07:25:08;;;;;;;0.60;0.60;;;21.50;75.60;;;;;;5057123;28;45977;-73
2023/09/23 07:27:38;;;;;;;0.50;0.50;;;21.50;75.80;;;;;;5064101;28;43431;-74
2023/09/23 07:30:07;;;;;;;0.60;0.60;;;21.50;75.90;;;;;;5080208;28;43462;-74
2023/09/23 07:32:36;;;;;;;0.60;0.60;;;21.40;76.00;;;;;;5067411;28;43515;-74
2023/09/23 07:35:05;;;;;;;0.60;0.60;;;21.40;76.10;;;;;;5053991;28;45994;-74
2023/09/23 07:37:33;;;;;;;0.60;0.60;;;21.40;76.00;;;;;;5057759;28;43373;-73
2023/09/23 07:40:02;;;;;;;0.70;0.70;;;21.40;76.10;;;;;;5071391;28;43495;-74
2023/09/23 07:42:30;;;;;;;0.63;0.63;;;21.40;76.20;;;;;;5070422;28;43578;-74
2023/09/23 07:44:59;;;;;;;0.70;0.70;;;21.40;76.20;;;;;;5060672;28;43774;-73
2023/09/23 07:47:27;;;;;;;0.50;0.50;;;21.40;76.10;;;;;;5060559;28;43524;-76
2023/09/23 07:49:56;;;;;;;0.70;0.70;;;21.30;76.00;;;;;;5062660;28;43419;-79
2023/09/23 07:52:24;;;;;;;0.80;0.80;;;21.30;76.80;;;;;;5069095;28;43515;-78
2023/09/23 07:54:52;;;;;;;0.83;0.60;;;21.30;76.20;;;;;;5059712;28;45332;-74
2023/09/23 07:57:20;;;;;;;0.60;0.60;;;21.30;76.10;;;;;;5059884;28;43388;-73
2023/09/23 07:59:48;;;;;;;0.90;0.90;;;21.40;76.00;;;;;;5046392;28;43531;-76
2023/09/23 08:02:18;;;;;;;0.90;0.90;;;21.50;71.60;;;;;;5065741;28;43544;-74
2023/09/23 08:04:46;;;;;;;1.20;1.20;;;21.60;68.10;;;;;;5051101;28;43757;-75
2023/09/23 08:07:14;;;;;;;0.80;0.80;;;21.60;68.00;;;;;;5065549;28;44859;-74
2023/09/23 08:09:42;;;;;;;1.10;1.10;;;21.60;70.00;;;;;;5058317;28;43443;-73
2023/09/23 08:12:11;;;;;;;0.80;0.80;;;21.60;70.40;;;;;;5056495;28;43536;-75
2023/09/23 08:14:39;;;;;;;1.10;1.10;;;21.50;71.30;;;;;;5048608;28;45416;-74
2023/09/23 08:17:07;;;;;;;1.07;1.07;;;21.40;69.20;;;;;;5047721;28;45031;-74
2023/09/23 08:19:36;;;;;;;1.00;1.00;;;21.40;69.10;;;;;;5070992;28;43506;-74
2023/09/23 08:22:04;;;;;;;1.00;1.00;;;21.40;70.20;;;;;;5069458;28;43545;-75
2023/09/23 08:24:32;;;;;;;2.53;1.10;;;21.30;70.50;;;;;;5053110;28;45754;-74
2023/09/23 08:27:05;;;;;;;1.00;1.00;;;21.30;70.60;;;;;;5063077;28;43473;-74
2023/09/23 08:29:33;;;;;;;1.23;1.10;;;21.20;68.70;;;;;;5050210;28;43495;-74
2023/09/23 08:32:01;;;;;;;1.60;1.20;;;21.30;68.20;;;;;;5049792;28;43538;-74
2023/09/23 08:34:29;;;;;;;1.10;1.10;;;21.30;67.80;;;;;;5058203;28;44098;-74
2023/09/23 08:37:00;;;;;;;1.97;1.10;;;21.40;67.40;;;;;;5067977;28;43426;-74
2023/09/23 08:39:28;;;;;;;1.17;1.17;;;21.50;67.30;;;;;;5057270;28;43466;-74
2023/09/23 08:41:57;;;;;;;1.77;1.13;;;21.50;68.60;;;;;;5050336;28;43598;-74
2023/09/23 08:44:25;;;;;;;1.10;1.10;;;21.40;69.00;;;;;;5048984;28;43621;-74
2023/09/23 08:46:53;;;;;;;1.37;1.00;;;21.40;69.30;;;;;;5058473;28;44017;-74
2023/09/23 08:49:22;;;;;;;1.73;1.10;;;21.30;68.50;;;;;;5068081;28;43900;-75
2023/09/23 08:51:52;;;;;;;0.93;0.93;;;21.30;68.00;;;;;;5052726;28;43988;-74
2023/09/23 08:54:23;;;;;;;1.00;1.00;;;21.20;69.00;;;;;;5068275;28;44256;-74
2023/09/23 08:56:52;;;;;;;2.17;1.10;;;21.20;69.30;;;;;;5076677;28;44616;-74
2023/09/23 08:59:20;;;;;;;1.63;1.20;;;21.20;69.40;;;;;;5060240;28;43534;-74
2023/09/23 09:01:48;;;;;;;1.13;1.13;;;21.20;68.30;;;;;;5052781;28;43480;-73
2023/09/23 09:04:16;;;;;;;1.10;1.00;;;21.10;68.80;;;;;;5063153;28;43794;-75
2023/09/23 09:06:49;;;;;;;1.07;1.07;;;21.20;69.50;;;;;;5062418;28;43614;-73
2023/09/23 09:09:17;;;;;;;1.10;1.10;;;21.10;69.40;;;;;;5062096;28;43622;-73
2023/09/23 09:11:50;;;;;;;3.00;1.20;;;21.10;69.40;;;;;;5075158;28;43549;-75
2023/09/23 09:14:18;;;;;;;1.20;1.20;;;21.10;68.10;;;;;;5070252;28;43699;-73
2023/09/23 09:16:47;;;;;;;1.10;1.10;;;21.10;67.70;;;;;;5068606;28;43438;-74
2023/09/23 09:19:15;;;;;;;1.07;1.00;;;21.20;67.40;;;;;;5069970;28;43794;-76
2023/09/23 09:21:43;;;;;;;1.90;1.17;;;21.30;67.00;;;;;;5041963;28;44052;-77
2023/09/23 09:24:11;;;;;;;1.23;1.10;;;21.40;66.70;;;;;;5055721;28;43837;-76
2023/09/23 09:26:40;;;;;;;1.30;1.20;;;21.40;67.70;;;;;;5058609;28;44240;-76
2023/09/23 09:29:09;;;;;;;1.10;1.10;;;21.40;68.20;;;;;;5051552;28;43475;-76
2023/09/23 09:31:38;;;;;;;1.40;1.30;;;21.30;68.30;;;;;;5056266;28;43444;-76
2023/09/23 09:34:09;;;;;;;1.20;1.10;;;21.20;67.50;;;;;;5044507;28;43983;-75
2023/09/23 09:36:38;;;;;;;1.33;1.23;;;21.20;67.60;;;;;;5043213;28;45068;-76
2023/09/23 09:39:08;;;;;;;1.10;1.10;;;21.20;68.40;;;;;;5055021;28;43429;-75
2023/09/23 09:41:44;;;;;;;1.33;1.20;;;21.20;68.40;;;;;;5065443;28;43428;-77
2023/09/23 09:44:15;;;;;;;1.77;1.67;;;21.20;68.40;;;;;;5069781;28;45955;-76
2023/09/23 09:46:43;;;;;;;1.20;1.20;;;21.10;67.40;;;;;;5066117;28;43471;-77
2023/09/23 09:49:16;;;;;;;1.30;1.30;;;21.10;68.20;;;;;;5071533;28;43480;-75
2023/09/23 09:51:46;;;;;;;1.07;1.07;;;21.10;68.30;;;;;;5058432;28;43601;-78
2023/09/23 09:54:14;;;;;;;1.13;1.10;;;21.10;68.30;;;;;;5062973;28;43711;-75
2023/09/23 09:56:42;;;;;;;1.57;1.47;;;21.10;67.70;;;;;;5058293;28;44836;-76
2023/09/23 09:59:10;;;;;;;1.37;1.37;;;21.10;66.70;;;;;;5069423;28;43484;-78
2023/09/23 10:01:40;;;;;;;2.67;1.20;;;21.10;66.30;;;;;;5063530;28;43691;-76
2023/09/23 10:04:12;;;;;;;1.23;1.23;;;21.20;66.10;;;;;;5047899;28;45694;-76
2023/09/23 10:06:40;;;;;;;1.10;1.10;;;21.30;65.60;;;;;;5057131;28;43558;-76
2023/09/23 10:09:18;;;;;;;1.47;1.37;;;21.40;65.80;;;;;;5064807;28;43465;-79
2023/09/23 10:11:55;;;;;;;1.20;1.10;;;21.40;66.60;;;;;;5073300;28;43445;-76
2023/09/23 10:14:24;;;;;;;2.20;1.37;;;21.30;66.90;;;;;;5071474;28;45751;-76
2023/09/23 10:16:59;;;;;;;1.63;1.40;;;21.30;67.20;;;;;;5051284;28;43571;-77
2023/09/23 10:19:32;;;;;;;1.50;1.40;;;21.20;66.00;;;;;;5053094;28;43450;-77
2023/09/23 10:22:13;;;;;;;1.30;1.20;;;21.20;66.90;;;;;;5052534;28;43463;-78
2023/09/23 10:24:41;;;;;;;1.67;1.40;;;21.20;67.30;;;;;;5063588;28;44067;-76
2023/09/23 10:27:10;;;;;;;1.40;1.30;;;21.20;67.50;;;;;;5063111;28;44612;-76
2023/09/23 10:29:45;;;;;;;1.53;1.43;;;21.20;67.50;;;;;;5064093;28;43634;-78
2023/09/23 10:32:15;;;;;;;1.00;1.00;;;21.10;66.70;;;;;;5063015;28;44127;-76
2023/09/23 10:34:48;;;;;;;1.47;1.37;;;21.10;67.50;;;;;;5053456;28;43915;-76
2023/09/23 10:37:29;;;;;;;1.10;1.10;;;21.10;67.50;;;;;;5061002;28;43495;-76
2023/09/23 10:40:02;;;;;;;1.50;1.40;;;21.10;67.50;;;;;;5066371;28;43472;-76
2023/09/23 10:42:33;;;;;;;1.40;1.40;;;21.10;67.20;;;;;;5058609;28;43519;-76
2023/09/23 10:45:01;;;;;;;1.30;1.20;;;21.10;66.30;;;;;;5057772;28;44416;-76
2023/09/23 10:47:31;;;;;;;2.53;1.20;;;21.10;66.00;;;;;;5065149;28;44483;-77
2023/09/23 10:49:59;;;;;;;1.57;1.30;;;21.20;66.60;;;;;;5075666;28;44061;-77
2023/09/23 10:52:29;;;;;;;1.60;1.20;;;21.30;65.20;;;;;;5071828;28;43614;-77
2023/09/23 10:54:57;;;;;;;1.07;1.07;;;21.30;65.80;;;;;;5058677;28;43883;-76
2023/09/23 10:57:30;;;;;;;1.33;1.20;;;21.30;66.20;;;;;;5048158;28;45873;-80
2023/09/23 10:59:59;;;;;;;1.37;1.27;;;21.30;66.30;;;;;;5067027;28;44680;-77
2023/09/23 11:02:31;;;;;;;1.40;1.40;;;21.20;66.30;;;;;;5061250;28;43476;-76
2023/09/23 11:05:00;;;;;;;1.00;1.00;;;21.20;65.40;;;;;;5068373;28;45686;-78
2023/09/23 11:07:28;;;;;;;1.20;1.20;;;21.20;66.90;;;;;;5064348;28;43518;-78
2023/09/23 11:09:56;;;;;;;1.63;1.17;;;21.20;66.40;;;;;;5073568;28;43477;-78
2023/09/23 11:12:27;;;;;;;1.13;1.13;;;21.10;66.30;;;;;;5067940;28;43513;-78
2023/09/23 11:14:56;;;;;;;1.50;1.20;;;21.10;65.80;;;;;;5057288;28;44180;-79
2023/09/23 11:17:25;;;;;;;1.60;1.10;;;21.10;64.80;;;;;;5064921;28;43448;-77
2023/09/23 11:19:56;;;;;;;2.30;1.63;;;21.10;64.90;;;;;;5044592;28;43560;-79
2023/09/23 11:22:25;;;;;;;2.10;1.30;;;21.20;64.40;;;;;;5061803;28;43519;-79
2023/09/23 11:24:54;;;;;;;1.30;1.20;;;21.20;65.20;;;;;;5067641;28;45415;-77
2023/09/23 11:27:22;;;;;;;1.53;1.43;;;21.20;65.60;;;;;;5045776;28;44404;-79
2023/09/23 11:29:50;;;;;;;1.60;1.50;;;21.20;64.60;;;;;;5063904;28;43486;-77
2023/09/23 11:32:21;;;;;;;1.30;1.30;;;21.20;65.20;;;;;;5064188;28;43430;-77
2023/09/23 11:34:50;;;;;;;1.10;1.10;;;21.20;65.70;;;;;;5047089;28;45774;-78
2023/09/23 11:37:20;;;;;;;1.40;1.30;;;21.10;65.80;;;;;;5046365;28;44715;-78
2023/09/23 11:39:48;;;;;;;1.30;1.20;;;21.10;66.00;;;;;;5067438;28;43438;-72
2023/09/23 11:42:17;;;;;;;1.27;1.20;;;21.10;65.00;;;;;;5069122;28;43491;-75
2023/09/23 11:44:45;;;;;;;1.13;1.10;;;21.10;65.70;;;;;;5067193;28;44011;-73
2023/09/23 11:47:13;;;;;;;2.07;1.20;;;21.00;65.90;;;;;;5069955;28;43552;-74
2023/09/23 11:49:42;;;;;;;1.20;1.10;;;21.00;66.20;;;;;;5082061;28;43508;-72
2023/09/23 11:52:12;;;;;;;0.90;0.90;;;21.00;66.20;;;;;;5067322;28;44114;-73
2023/09/23 11:54:44;;;;;;;1.33;1.20;;;21.00;65.30;;;;;;5056814;28;43702;-74
2023/09/23 11:57:13;;;;;;;1.10;1.00;;;21.00;64.50;;;;;;5065204;28;43598;-74
2023/09/23 11:59:46;;;;;;;1.40;1.30;;;21.00;64.20;;;;;;5079239;28;44110;-74
2023/09/23 12:02:15;;;;;;;2.53;1.50;;;21.20;63.90;;;;;;5046823;28;43869;-74
2023/09/23 12:04:43;;;;;;;1.20;1.20;;;21.20;63.30;;;;;;5057504;28;46032;-73
2023/09/23 12:07:12;;;;;;;1.23;1.13;;;21.20;64.20;;;;;;5067628;28;44023;-74
2023/09/23 12:09:40;;;;;;;1.10;1.10;;;21.20;64.70;;;;;;5046458;28;43455;-73
2023/09/23 12:12:11;;;;;;;1.17;1.17;;;21.20;64.90;;;;;;5063103;28;43596;-74
2023/09/23 12:14:42;;;;;;;1.00;1.00;;;21.20;65.00;;;;;;5056557;28;44004;-74
2023/09/23 12:17:14;;;;;;;2.37;1.07;;;21.10;64.70;;;;;;5053481;28;43501;-74
2023/09/23 12:19:44;;;;;;;1.20;1.20;;;21.10;65.30;;;;;;5052737;28;43522;-73
2023/09/23 12:22:15;;;;;;;1.10;1.10;;;21.00;65.30;;;;;;5050456;28;43859;-73
2023/09/23 12:24:43;;;;;;;1.20;1.20;;;21.00;65.50;;;;;;5063077;28;45709;-73
2023/09/23 12:27:12;;;;;;;1.73;1.30;;;21.00;65.20;;;;;;5059729;28;43511;-73
2023/09/23 12:29:40;;;;;;;1.90;1.10;;;21.00;65.30;;;;;;5056184;28;43529;-73
2023/09/23 12:32:10;;;;;;;1.30;1.20;;;21.00;65.70;;;;;;5045567;28;44561;-73
2023/09/23 12:34:41;;;;;;;1.10;1.10;;;21.00;65.80;;;;;;5054977;28;43901;-73
2023/09/23 12:37:09;;;;;;;1.30;1.20;;;21.00;65.90;;;;;;5054179;28;43393;-73
2023/09/23 12:39:37;;;;;;;1.00;1.00;;;20.90;65.10;;;;;;5051510;28;43458;-74
2023/09/23 12:42:05;;;;;;;1.20;1.20;;;21.00;64.60;;;;;;5069026;28;43471;-74
2023/09/23 12:44:35;;;;;;;2.13;1.67;;;21.00;64.30;;;;;;5058578;28;44125;-76
2023/09/23 12:47:03;;;;;;;3.40;3.10;;;21.10;64.10;;;;;;5047952;28;44659;-76
2023/09/23 12:49:32;;;;;;;5.00;4.07;;;21.20;63.50;;;;;;5059452;28;43586;-77
2023/09/23 12:52:00;;;;;;;4.30;3.80;;;21.20;64.20;;;;;;5058541;28;43721;-78
2023/09/23 12:54:28;;;;;;;7.03;5.10;;;21.20;64.70;;;;;;5054165;28;44020;-78
2023/09/23 12:56:58;;;;;;;7.00;5.53;;;21.20;65.00;;;;;;5045163;28;44709;-77
2023/09/23 12:59:26;;;;;;;8.17;5.07;;;21.20;65.20;;;;;;5054976;28;43818;-77